PWSweather.com
Personal Weather Stations
Station Observations
UWIDEPER1
Brown County, Depere, WI 54115

Brown CountyDepere, WI 54115

Lat: 44.44, Lon: -88.05

Elevation: 610

Station Type: Acurite 5in1

www.depereweather.com

High Low Average
Temperature 36.1°F2.3°C 26.6°F-3.0°C 30.5°F-0.8°C
Dew Point 30.7°F-0.7°C 23.5°F-4.7°C 27.3°F-2.6°C
Winds 8.1 mph 13.0 kmh Calm Calm 4.0 mph SSW6.4 kmh SSW
Wind Gusts 10.4 mph16.7 kmh -- 5.0 mph8.0 kmh
Humidity 93% 71% 88%
Pressure 30.28 in1025.4 mb 29.98 in1015.2 mb -
Precipitation 0.00 in0.0 mm - -
Hour Temp Dew Point Humidity Winds Wind Gusts Pressure Precip Precip Rate Daily Precip Total
12:00 AM 32.0°F0.0°C 29.7°F-1.3°C 91% 3.5 mph NNW5.6 kmh NNW 3.5 mph5.6 kmh 29.98 in1015.2 mb - 0.00 in0.0 mm 0.00 in0.0 mm
12:10 AM 32.0°F0.0°C 29.7°F-1.3°C 91% 3.5 mph NNE5.6 kmh NNE 5.8 mph9.3 kmh 29.98 in1015.2 mb - 0.00 in0.0 mm 0.00 in0.0 mm
12:15 AM 32.0°F0.0°C 29.7°F-1.3°C 91% 3.5 mph N5.6 kmh N 3.5 mph5.6 kmh 29.98 in1015.2 mb - 0.00 in0.0 mm 0.00 in0.0 mm
12:20 AM 32.0°F0.0°C 29.7°F-1.3°C 91% 3.5 mph NNW5.6 kmh NNW 4.6 mph7.4 kmh 29.98 in1015.2 mb - 0.00 in0.0 mm 0.00 in0.0 mm
12:25 AM 32.0°F0.0°C 29.7°F-1.3°C 91% 3.5 mph NE5.6 kmh NE 3.5 mph5.6 kmh 29.98 in1015.2 mb - 0.00 in0.0 mm 0.00 in0.0 mm
12:30 AM 32.0°F0.0°C 29.4°F-1.4°C 90% 3.5 mph NNE5.6 kmh NNE 5.8 mph9.3 kmh 29.98 in1015.2 mb - 0.00 in0.0 mm 0.00 in0.0 mm
12:35 AM 32.0°F0.0°C 29.4°F-1.4°C 90% 3.5 mph NW5.6 kmh NW 5.8 mph9.3 kmh 29.98 in1015.2 mb - 0.00 in0.0 mm 0.00 in0.0 mm
12:40 AM 32.0°F0.0°C 29.4°F-1.4°C 90% 4.6 mph NE7.4 kmh NE 8.1 mph13.0 kmh 29.98 in1015.2 mb - 0.00 in0.0 mm 0.00 in0.0 mm
12:45 AM 32.0°F0.0°C 29.4°F-1.4°C 90% 4.6 mph N7.4 kmh N 3.5 mph5.6 kmh 29.98 in1015.2 mb - 0.00 in0.0 mm 0.00 in0.0 mm
12:50 AM 32.0°F0.0°C 29.4°F-1.4°C 90% 3.5 mph NE5.6 kmh NE 3.5 mph5.6 kmh 29.99 in1015.6 mb - 0.00 in0.0 mm 0.00 in0.0 mm
12:55 AM 32.0°F0.0°C 29.4°F-1.4°C 90% 4.6 mph N7.4 kmh N 6.9 mph11.1 kmh 29.99 in1015.6 mb - 0.00 in0.0 mm 0.00 in0.0 mm
01:00 AM 30.2°F-1.0°C 27.6°F-2.4°C 90% 4.6 mph NE7.4 kmh NE 4.6 mph7.4 kmh 29.98 in1015.2 mb - 0.00 in0.0 mm 0.00 in0.0 mm
01:10 AM 30.2°F-1.0°C 27.6°F-2.4°C 90% 3.5 mph NNE5.6 kmh NNE 3.5 mph5.6 kmh 29.99 in1015.6 mb - 0.00 in0.0 mm 0.00 in0.0 mm
01:15 AM 30.2°F-1.0°C 27.6°F-2.4°C 90% 2.3 mph NE3.7 kmh NE 3.5 mph5.6 kmh 30.00 in1015.9 mb - 0.00 in0.0 mm 0.00 in0.0 mm
01:20 AM 30.2°F-1.0°C 27.6°F-2.4°C 90% 3.5 mph ESE5.6 kmh ESE 3.5 mph5.6 kmh 29.99 in1015.6 mb - 0.00 in0.0 mm 0.00 in0.0 mm
01:25 AM 30.2°F-1.0°C 27.6°F-2.4°C 90% 3.5 mph ENE5.6 kmh ENE 9.2 mph14.8 kmh 30.00 in1015.9 mb - 0.00 in0.0 mm 0.00 in0.0 mm
01:30 AM 30.2°F-1.0°C 27.6°F-2.4°C 90% 4.6 mph N7.4 kmh N 4.6 mph7.4 kmh 30.00 in1015.9 mb - 0.00 in0.0 mm 0.00 in0.0 mm
01:35 AM 30.2°F-1.0°C 27.6°F-2.4°C 90% 4.6 mph NNE7.4 kmh NNE 9.2 mph14.8 kmh 30.00 in1015.9 mb - 0.00 in0.0 mm 0.00 in0.0 mm
01:40 AM 30.2°F-1.0°C 27.6°F-2.4°C 90% 4.6 mph N7.4 kmh N 5.8 mph9.3 kmh 30.00 in1015.9 mb - 0.00 in0.0 mm 0.00 in0.0 mm
01:45 AM 30.2°F-1.0°C 27.6°F-2.4°C 90% 4.6 mph 7.4 kmh 3.5 mph5.6 kmh 29.99 in1015.6 mb - 0.00 in0.0 mm 0.00 in0.0 mm
01:50 AM 30.2°F-1.0°C 27.6°F-2.4°C 90% 5.8 mph NNE9.3 kmh NNE 5.8 mph9.3 kmh 29.98 in1015.2 mb - 0.00 in0.0 mm 0.00 in0.0 mm
01:55 AM 30.2°F-1.0°C 27.6°F-2.4°C 90% 3.5 mph N5.6 kmh N 5.8 mph9.3 kmh 29.99 in1015.6 mb - 0.00 in0.0 mm 0.00 in0.0 mm
02:00 AM 28.4°F-2.0°C 25.3°F-3.7°C 88% 5.8 mph N9.3 kmh N 5.8 mph9.3 kmh 30.00 in1015.9 mb - 0.00 in0.0 mm 0.00 in0.0 mm
02:10 AM 28.4°F-2.0°C 25.3°F-3.7°C 88% 3.5 mph ESE5.6 kmh ESE 4.6 mph7.4 kmh 30.00 in1015.9 mb - 0.00 in0.0 mm 0.00 in0.0 mm
02:15 AM 28.4°F-2.0°C 25.3°F-3.7°C 88% 4.6 mph NE7.4 kmh NE 8.1 mph13.0 kmh 30.00 in1015.9 mb - 0.00 in0.0 mm 0.00 in0.0 mm
02:20 AM 28.4°F-2.0°C 25.3°F-3.7°C 88% 4.6 mph NNE7.4 kmh NNE 4.6 mph7.4 kmh 30.00 in1015.9 mb - 0.00 in0.0 mm 0.00 in0.0 mm
02:25 AM 28.4°F-2.0°C 25.3°F-3.7°C 88% 3.5 mph N5.6 kmh N 3.5 mph5.6 kmh 30.00 in1015.9 mb - 0.00 in0.0 mm 0.00 in0.0 mm
02:30 AM 28.4°F-2.0°C 25.3°F-3.7°C 88% 4.6 mph NNE7.4 kmh NNE 4.6 mph7.4 kmh 29.99 in1015.6 mb - 0.00 in0.0 mm 0.00 in0.0 mm
02:35 AM 28.4°F-2.0°C 25.3°F-3.7°C 88% 4.6 mph NNE7.4 kmh NNE 3.5 mph5.6 kmh 29.98 in1015.2 mb - 0.00 in0.0 mm 0.00 in0.0 mm
02:40 AM 28.4°F-2.0°C 25.3°F-3.7°C 88% 3.5 mph NE5.6 kmh NE 3.5 mph5.6 kmh 29.98 in1015.2 mb - 0.00 in0.0 mm 0.00 in0.0 mm
02:45 AM 28.4°F-2.0°C 25.3°F-3.7°C 88% 4.6 mph N7.4 kmh N 6.9 mph11.1 kmh 29.98 in1015.2 mb - 0.00 in0.0 mm 0.00 in0.0 mm
02:50 AM 28.4°F-2.0°C 25.3°F-3.7°C 88% 4.6 mph NE7.4 kmh NE 8.1 mph13.0 kmh 29.98 in1015.2 mb - 0.00 in0.0 mm 0.00 in0.0 mm
02:55 AM 28.4°F-2.0°C 25.3°F-3.7°C 88% 5.8 mph N9.3 kmh N 6.9 mph11.1 kmh 29.98 in1015.2 mb - 0.00 in0.0 mm 0.00 in0.0 mm
03:00 AM 28.4°F-2.0°C 25.3°F-3.7°C 88% 5.8 mph NNE9.3 kmh NNE 4.6 mph7.4 kmh 29.98 in1015.2 mb - 0.00 in0.0 mm 0.00 in0.0 mm
03:10 AM 28.4°F-2.0°C 25.3°F-3.7°C 88% 5.8 mph 9.3 kmh 9.2 mph14.8 kmh 29.99 in1015.6 mb - 0.00 in0.0 mm 0.00 in0.0 mm
03:15 AM 28.4°F-2.0°C 25.3°F-3.7°C 88% 5.8 mph NE9.3 kmh NE 10.4 mph16.7 kmh 29.98 in1015.2 mb - 0.00 in0.0 mm 0.00 in0.0 mm
03:20 AM 28.4°F-2.0°C 25.3°F-3.7°C 88% 4.6 mph NE7.4 kmh NE 3.5 mph5.6 kmh 29.98 in1015.2 mb - 0.00 in0.0 mm 0.00 in0.0 mm
03:25 AM 28.4°F-2.0°C 25.3°F-3.7°C 88% 5.8 mph NE9.3 kmh NE 8.1 mph13.0 kmh 29.98 in1015.2 mb - 0.00 in0.0 mm 0.00 in0.0 mm
03:30 AM 28.4°F-2.0°C 25.3°F-3.7°C 88% 4.6 mph NE7.4 kmh NE 9.2 mph14.8 kmh 29.98 in1015.2 mb - 0.00 in0.0 mm 0.00 in0.0 mm
03:35 AM 28.4°F-2.0°C 25.3°F-3.7°C 88% 8.1 mph NNE13.0 kmh NNE 9.2 mph14.8 kmh 29.98 in1015.2 mb - 0.00 in0.0 mm 0.00 in0.0 mm
03:40 AM 28.4°F-2.0°C 25.3°F-3.7°C 88% 5.8 mph NNE9.3 kmh NNE 5.8 mph9.3 kmh 29.98 in1015.2 mb - 0.00 in0.0 mm 0.00 in0.0 mm
03:45 AM 28.4°F-2.0°C 25.3°F-3.7°C 88% 4.6 mph NE7.4 kmh NE 5.8 mph9.3 kmh 29.98 in1015.2 mb - 0.00 in0.0 mm 0.00 in0.0 mm
03:50 AM 28.4°F-2.0°C 25.3°F-3.7°C 88% 5.8 mph NNE9.3 kmh NNE 6.9 mph11.1 kmh 29.98 in1015.2 mb - 0.00 in0.0 mm 0.00 in0.0 mm
03:55 AM 26.6°F-3.0°C 23.5°F-4.7°C 88% 4.6 mph NNE7.4 kmh NNE 8.1 mph13.0 kmh 29.99 in1015.6 mb - 0.00 in0.0 mm 0.00 in0.0 mm
04:00 AM 26.6°F-3.0°C 23.5°F-4.7°C 88% 4.6 mph NNW7.4 kmh NNW 4.6 mph7.4 kmh 29.98 in1015.2 mb - 0.00 in0.0 mm 0.00 in0.0 mm
04:10 AM 26.6°F-3.0°C 24.1°F-4.4°C 90% 3.5 mph NNE5.6 kmh NNE 8.1 mph13.0 kmh 29.99 in1015.6 mb - 0.00 in0.0 mm 0.00 in0.0 mm
04:15 AM 26.6°F-3.0°C 24.1°F-4.4°C 90% 4.6 mph N7.4 kmh N 6.9 mph11.1 kmh 29.98 in1015.2 mb - 0.00 in0.0 mm 0.00 in0.0 mm
04:20 AM 26.6°F-3.0°C 24.1°F-4.4°C 90% 4.6 mph ENE7.4 kmh ENE 9.2 mph14.8 kmh 29.98 in1015.2 mb - 0.00 in0.0 mm 0.00 in0.0 mm
04:25 AM 26.6°F-3.0°C 24.1°F-4.4°C 90% 5.8 mph N9.3 kmh N 4.6 mph7.4 kmh 29.98 in1015.2 mb - 0.00 in0.0 mm 0.00 in0.0 mm
04:30 AM 26.6°F-3.0°C 24.1°F-4.4°C 90% 3.5 mph NE5.6 kmh NE 5.8 mph9.3 kmh 29.98 in1015.2 mb - 0.00 in0.0 mm 0.00 in0.0 mm
04:35 AM 26.6°F-3.0°C 24.1°F-4.4°C 90% 4.6 mph N7.4 kmh N 5.8 mph9.3 kmh 29.99 in1015.6 mb - 0.00 in0.0 mm 0.00 in0.0 mm
04:40 AM 26.6°F-3.0°C 24.1°F-4.4°C 90% 4.6 mph NE7.4 kmh NE 3.5 mph5.6 kmh 29.99 in1015.6 mb - 0.00 in0.0 mm 0.00 in0.0 mm
04:45 AM 26.6°F-3.0°C 24.1°F-4.4°C 90% 4.6 mph NNE7.4 kmh NNE 5.8 mph9.3 kmh 29.99 in1015.6 mb - 0.00 in0.0 mm 0.00 in0.0 mm
04:50 AM 26.6°F-3.0°C 24.1°F-4.4°C 90% 5.8 mph NNW9.3 kmh NNW 5.8 mph9.3 kmh 29.99 in1015.6 mb - 0.00 in0.0 mm 0.00 in0.0 mm
04:55 AM 26.6°F-3.0°C 24.1°F-4.4°C 90% 5.8 mph NNE9.3 kmh NNE 4.6 mph7.4 kmh 29.99 in1015.6 mb - 0.00 in0.0 mm 0.00 in0.0 mm
05:00 AM 26.6°F-3.0°C 24.1°F-4.4°C 90% 4.6 mph N7.4 kmh N 9.2 mph14.8 kmh 29.99 in1015.6 mb - 0.00 in0.0 mm 0.00 in0.0 mm
05:10 AM 26.6°F-3.0°C 24.1°F-4.4°C 90% 4.6 mph N7.4 kmh N 5.8 mph9.3 kmh 29.99 in1015.6 mb - 0.00 in0.0 mm 0.00 in0.0 mm
05:15 AM 26.6°F-3.0°C 24.1°F-4.4°C 90% 4.6 mph N7.4 kmh N 5.8 mph9.3 kmh 29.99 in1015.6 mb - 0.00 in0.0 mm 0.00 in0.0 mm
05:20 AM 26.6°F-3.0°C 24.3°F-4.3°C 91% 4.6 mph NE7.4 kmh NE 6.9 mph11.1 kmh 29.99 in1015.6 mb - 0.00 in0.0 mm 0.00 in0.0 mm
05:25 AM 26.6°F-3.0°C 24.3°F-4.3°C 91% 4.6 mph N7.4 kmh N 3.5 mph5.6 kmh 30.00 in1015.9 mb - 0.00 in0.0 mm 0.00 in0.0 mm
05:30 AM 26.6°F-3.0°C 24.3°F-4.3°C 91% 3.5 mph ESE5.6 kmh ESE 5.8 mph9.3 kmh 30.00 in1015.9 mb - 0.00 in0.0 mm 0.00 in0.0 mm
05:35 AM 26.6°F-3.0°C 24.3°F-4.3°C 91% 4.6 mph NNE7.4 kmh NNE 5.8 mph9.3 kmh 30.00 in1015.9 mb - 0.00 in0.0 mm 0.00 in0.0 mm
05:40 AM 26.6°F-3.0°C 24.3°F-4.3°C 91% 3.5 mph NE5.6 kmh NE 5.8 mph9.3 kmh 30.00 in1015.9 mb - 0.00 in0.0 mm 0.00 in0.0 mm
05:45 AM 26.6°F-3.0°C 24.3°F-4.3°C 91% 5.8 mph NNE9.3 kmh NNE 4.6 mph7.4 kmh 30.00 in1015.9 mb - 0.00 in0.0 mm 0.00 in0.0 mm
05:50 AM 26.6°F-3.0°C 24.3°F-4.3°C 91% 3.5 mph N5.6 kmh N 5.8 mph9.3 kmh 30.01 in1016.3 mb - 0.00 in0.0 mm 0.00 in0.0 mm
05:55 AM 26.6°F-3.0°C 24.3°F-4.3°C 91% 3.5 mph N5.6 kmh N 8.1 mph13.0 kmh 30.00 in1015.9 mb - 0.00 in0.0 mm 0.00 in0.0 mm
06:00 AM 26.6°F-3.0°C 24.3°F-4.3°C 91% 4.6 mph N7.4 kmh N 6.9 mph11.1 kmh 30.00 in1015.9 mb - 0.00 in0.0 mm 0.00 in0.0 mm
06:10 AM 26.6°F-3.0°C 24.3°F-4.3°C 91% 3.5 mph E5.6 kmh E 3.5 mph5.6 kmh 30.01 in1016.3 mb - 0.00 in0.0 mm 0.00 in0.0 mm
06:15 AM 26.6°F-3.0°C 24.3°F-4.3°C 91% 3.5 mph N5.6 kmh N 4.6 mph7.4 kmh 30.01 in1016.3 mb - 0.00 in0.0 mm 0.00 in0.0 mm
06:20 AM 26.6°F-3.0°C 24.3°F-4.3°C 91% 3.5 mph ESE5.6 kmh ESE 4.6 mph7.4 kmh 30.02 in1016.6 mb - 0.00 in0.0 mm 0.00 in0.0 mm
06:25 AM 26.6°F-3.0°C 24.3°F-4.3°C 91% 3.5 mph NW5.6 kmh NW 8.1 mph13.0 kmh 30.02 in1016.6 mb - 0.00 in0.0 mm 0.00 in0.0 mm
06:30 AM 26.6°F-3.0°C 24.3°F-4.3°C 91% 4.6 mph N7.4 kmh N 4.6 mph7.4 kmh 30.02 in1016.6 mb - 0.00 in0.0 mm 0.00 in0.0 mm
06:35 AM 26.6°F-3.0°C 24.3°F-4.3°C 91% 3.5 mph NNE5.6 kmh NNE 5.8 mph9.3 kmh 30.02 in1016.6 mb - 0.00 in0.0 mm 0.00 in0.0 mm
06:40 AM 26.6°F-3.0°C 24.3°F-4.3°C 91% 3.5 mph N5.6 kmh N 6.9 mph11.1 kmh 30.02 in1016.6 mb - 0.00 in0.0 mm 0.00 in0.0 mm
06:45 AM 26.6°F-3.0°C 24.3°F-4.3°C 91% 4.6 mph N7.4 kmh N 4.6 mph7.4 kmh 30.02 in1016.6 mb - 0.00 in0.0 mm 0.00 in0.0 mm
06:50 AM 26.6°F-3.0°C 24.3°F-4.3°C 91% 4.6 mph N7.4 kmh N 4.6 mph7.4 kmh 30.02 in1016.6 mb - 0.00 in0.0 mm 0.00 in0.0 mm
06:55 AM 26.6°F-3.0°C 24.3°F-4.3°C 91% 3.5 mph N5.6 kmh N 5.8 mph9.3 kmh 30.01 in1016.3 mb - 0.00 in0.0 mm 0.00 in0.0 mm
07:00 AM 26.6°F-3.0°C 24.3°F-4.3°C 91% 3.5 mph N5.6 kmh N 5.8 mph9.3 kmh 30.01 in1016.3 mb - 0.00 in0.0 mm 0.00 in0.0 mm
07:10 AM 26.6°F-3.0°C 24.3°F-4.3°C 91% 3.5 mph NE5.6 kmh NE 4.6 mph7.4 kmh 30.01 in1016.3 mb - 0.00 in0.0 mm 0.00 in0.0 mm
07:15 AM 26.6°F-3.0°C 24.3°F-4.3°C 91% 3.5 mph N5.6 kmh N 3.5 mph5.6 kmh 30.01 in1016.3 mb - 0.00 in0.0 mm 0.00 in0.0 mm
07:20 AM 26.6°F-3.0°C 24.3°F-4.3°C 91% 4.6 mph N7.4 kmh N 3.5 mph5.6 kmh 30.01 in1016.3 mb - 0.00 in0.0 mm 0.00 in0.0 mm
07:25 AM 26.6°F-3.0°C 24.3°F-4.3°C 91% 3.5 mph N5.6 kmh N 5.8 mph9.3 kmh 30.02 in1016.6 mb - 0.00 in0.0 mm 0.00 in0.0 mm
07:30 AM 26.6°F-3.0°C 24.3°F-4.3°C 91% 3.5 mph NE5.6 kmh NE 3.5 mph5.6 kmh 30.02 in1016.6 mb - 0.00 in0.0 mm 0.00 in0.0 mm
07:35 AM 26.6°F-3.0°C 24.3°F-4.3°C 91% 3.5 mph NNE5.6 kmh NNE 3.5 mph5.6 kmh 30.02 in1016.6 mb - 0.00 in0.0 mm 0.00 in0.0 mm
07:40 AM 26.6°F-3.0°C 24.3°F-4.3°C 91% 3.5 mph N5.6 kmh N 4.6 mph7.4 kmh 30.02 in1016.6 mb - 0.00 in0.0 mm 0.00 in0.0 mm
07:45 AM 26.6°F-3.0°C 24.3°F-4.3°C 91% 3.5 mph NW5.6 kmh NW 4.6 mph7.4 kmh 30.02 in1016.6 mb - 0.00 in0.0 mm 0.00 in0.0 mm
07:50 AM 26.6°F-3.0°C 24.3°F-4.3°C 91% 3.5 mph NW5.6 kmh NW 3.5 mph5.6 kmh 30.03 in1016.9 mb - 0.00 in0.0 mm 0.00 in0.0 mm
07:55 AM 26.6°F-3.0°C 24.3°F-4.3°C 91% 4.6 mph N7.4 kmh N 2.3 mph3.7 kmh 30.04 in1017.3 mb - 0.00 in0.0 mm 0.00 in0.0 mm
08:00 AM 26.6°F-3.0°C 24.3°F-4.3°C 91% 3.5 mph NNE5.6 kmh NNE 3.5 mph5.6 kmh 30.04 in1017.3 mb - 0.00 in0.0 mm 0.00 in0.0 mm
08:10 AM 26.6°F-3.0°C 24.3°F-4.3°C 91% 3.5 mph N5.6 kmh N 3.5 mph5.6 kmh 30.04 in1017.3 mb - 0.00 in0.0 mm 0.00 in0.0 mm
08:15 AM 28.4°F-2.0°C 26.1°F-3.3°C 91% 3.5 mph NW5.6 kmh NW 3.5 mph5.6 kmh 30.04 in1017.3 mb - 0.00 in0.0 mm 0.00 in0.0 mm
08:20 AM 28.4°F-2.0°C 26.1°F-3.3°C 91% 2.3 mph NNW3.7 kmh NNW 2.3 mph3.7 kmh 30.04 in1017.3 mb - 0.00 in0.0 mm 0.00 in0.0 mm
08:25 AM 28.4°F-2.0°C 25.8°F-3.4°C 90% 2.3 mph NNE3.7 kmh NNE 9.2 mph14.8 kmh 30.03 in1016.9 mb - 0.00 in0.0 mm 0.00 in0.0 mm
08:30 AM 28.4°F-2.0°C 25.8°F-3.4°C 90% 3.5 mph NNE5.6 kmh NNE 3.5 mph5.6 kmh 30.04 in1017.3 mb - 0.00 in0.0 mm 0.00 in0.0 mm
08:35 AM 28.4°F-2.0°C 25.8°F-3.4°C 90% 2.3 mph NW3.7 kmh NW 3.5 mph5.6 kmh 30.03 in1016.9 mb - 0.00 in0.0 mm 0.00 in0.0 mm
08:40 AM 28.4°F-2.0°C 25.8°F-3.4°C 90% 3.5 mph N5.6 kmh N 4.6 mph7.4 kmh 30.03 in1016.9 mb - 0.00 in0.0 mm 0.00 in0.0 mm
08:45 AM 28.4°F-2.0°C 25.3°F-3.7°C 88% 4.6 mph NNE7.4 kmh NNE 3.5 mph5.6 kmh 30.03 in1016.9 mb - 0.00 in0.0 mm 0.00 in0.0 mm
08:50 AM 28.4°F-2.0°C 25.3°F-3.7°C 88% 4.6 mph NNE7.4 kmh NNE 5.8 mph9.3 kmh 30.03 in1016.9 mb - 0.00 in0.0 mm 0.00 in0.0 mm
08:55 AM 28.4°F-2.0°C 25.3°F-3.7°C 88% 5.8 mph N9.3 kmh N 5.8 mph9.3 kmh 30.02 in1016.6 mb - 0.00 in0.0 mm 0.00 in0.0 mm
09:00 AM 28.4°F-2.0°C 25.3°F-3.7°C 88% 4.6 mph N7.4 kmh N 3.5 mph5.6 kmh 30.03 in1016.9 mb - 0.00 in0.0 mm 0.00 in0.0 mm
09:10 AM 28.4°F-2.0°C 25.3°F-3.7°C 88% 4.6 mph NNE7.4 kmh NNE 10.4 mph16.7 kmh 30.02 in1016.6 mb - 0.00 in0.0 mm 0.00 in0.0 mm
09:15 AM 28.4°F-2.0°C 25.3°F-3.7°C 88% 5.8 mph NNE9.3 kmh NNE 6.9 mph11.1 kmh 30.02 in1016.6 mb - 0.00 in0.0 mm 0.00 in0.0 mm
09:20 AM 28.4°F-2.0°C 25.3°F-3.7°C 88% 6.9 mph NNE11.1 kmh NNE 6.9 mph11.1 kmh 30.03 in1016.9 mb - 0.00 in0.0 mm 0.00 in0.0 mm
09:25 AM 28.4°F-2.0°C 25.3°F-3.7°C 88% 4.6 mph NNW7.4 kmh NNW 3.5 mph5.6 kmh 30.02 in1016.6 mb - 0.00 in0.0 mm 0.00 in0.0 mm
09:30 AM 28.4°F-2.0°C 25.3°F-3.7°C 88% 5.8 mph NE9.3 kmh NE 9.2 mph14.8 kmh 30.02 in1016.6 mb - 0.00 in0.0 mm 0.00 in0.0 mm
09:35 AM 28.4°F-2.0°C 25.3°F-3.7°C 88% 4.6 mph NE7.4 kmh NE 8.1 mph13.0 kmh 30.03 in1016.9 mb - 0.00 in0.0 mm 0.00 in0.0 mm
09:40 AM 28.4°F-2.0°C 25.3°F-3.7°C 88% 5.8 mph NNE9.3 kmh NNE 6.9 mph11.1 kmh 30.03 in1016.9 mb - 0.00 in0.0 mm 0.00 in0.0 mm
09:45 AM 28.4°F-2.0°C 25.3°F-3.7°C 88% 6.9 mph NE11.1 kmh NE 6.9 mph11.1 kmh 30.03 in1016.9 mb - 0.00 in0.0 mm 0.00 in0.0 mm
09:50 AM 28.9°F-1.7°C 25.8°F-3.4°C 88% 5.8 mph NE9.3 kmh NE 4.6 mph7.4 kmh 30.04 in1017.3 mb - 0.00 in0.0 mm 0.00 in0.0 mm
09:55 AM 30.2°F-1.0°C 27.1°F-2.7°C 88% 3.5 mph NNW5.6 kmh NNW 3.5 mph5.6 kmh 30.04 in1017.3 mb - 0.00 in0.0 mm 0.00 in0.0 mm
10:00 AM 30.2°F-1.0°C 26.5°F-3.1°C 86% 3.5 mph E5.6 kmh E 6.9 mph11.1 kmh 30.04 in1017.3 mb - 0.00 in0.0 mm 0.00 in0.0 mm
10:10 AM 30.2°F-1.0°C 26.5°F-3.1°C 86% 3.5 mph N5.6 kmh N 8.1 mph13.0 kmh 30.04 in1017.3 mb - 0.00 in0.0 mm 0.00 in0.0 mm
10:15 AM 30.2°F-1.0°C 26.5°F-3.1°C 86% 4.6 mph NW7.4 kmh NW 5.8 mph9.3 kmh 30.04 in1017.3 mb - 0.00 in0.0 mm 0.00 in0.0 mm
10:20 AM 30.2°F-1.0°C 26.5°F-3.1°C 86% 4.6 mph NW7.4 kmh NW 3.5 mph5.6 kmh 30.03 in1016.9 mb - 0.00 in0.0 mm 0.00 in0.0 mm
10:25 AM 30.2°F-1.0°C 26.5°F-3.1°C 86% 4.6 mph NNE7.4 kmh NNE 5.8 mph9.3 kmh 30.04 in1017.3 mb - 0.00 in0.0 mm 0.00 in0.0 mm
10:30 AM 30.2°F-1.0°C 26.5°F-3.1°C 86% 5.8 mph N9.3 kmh N 5.8 mph9.3 kmh 30.04 in1017.3 mb - 0.00 in0.0 mm 0.00 in0.0 mm
10:35 AM 30.2°F-1.0°C 26.5°F-3.1°C 86% 3.5 mph NE5.6 kmh NE 4.6 mph7.4 kmh 30.04 in1017.3 mb - 0.00 in0.0 mm 0.00 in0.0 mm
10:40 AM 30.2°F-1.0°C 26.5°F-3.1°C 86% 4.6 mph NW7.4 kmh NW 6.9 mph11.1 kmh 30.05 in1017.6 mb - 0.00 in0.0 mm 0.00 in0.0 mm
10:45 AM 30.2°F-1.0°C 26.5°F-3.1°C 86% 3.5 mph NNW5.6 kmh NNW 4.6 mph7.4 kmh 30.05 in1017.6 mb - 0.00 in0.0 mm 0.00 in0.0 mm
10:50 AM 30.2°F-1.0°C 26.5°F-3.1°C 86% 4.6 mph NE7.4 kmh NE 4.6 mph7.4 kmh 30.05 in1017.6 mb - 0.00 in0.0 mm 0.00 in0.0 mm
10:55 AM 30.2°F-1.0°C 26.5°F-3.1°C 86% 5.8 mph N9.3 kmh N 5.8 mph9.3 kmh 30.05 in1017.6 mb - 0.00 in0.0 mm 0.00 in0.0 mm
11:00 AM 30.2°F-1.0°C 26.5°F-3.1°C 86% 5.8 mph N9.3 kmh N 10.4 mph16.7 kmh 30.05 in1017.6 mb - 0.00 in0.0 mm 0.00 in0.0 mm
11:10 AM 30.2°F-1.0°C 26.5°F-3.1°C 86% 5.8 mph ENE9.3 kmh ENE 5.8 mph9.3 kmh 30.05 in1017.6 mb - 0.00 in0.0 mm 0.00 in0.0 mm
11:15 AM 30.2°F-1.0°C 26.2°F-3.2°C 85% 6.9 mph NE11.1 kmh NE 10.4 mph16.7 kmh 30.05 in1017.6 mb - 0.00 in0.0 mm 0.00 in0.0 mm
11:20 AM 32.0°F0.0°C 28.0°F-2.2°C 85% 4.6 mph NNE7.4 kmh NNE 5.8 mph9.3 kmh 30.06 in1017.9 mb - 0.00 in0.0 mm 0.00 in0.0 mm
11:25 AM 32.0°F0.0°C 27.4°F-2.6°C 83% 5.8 mph NE9.3 kmh NE 8.1 mph13.0 kmh 30.06 in1017.9 mb - 0.00 in0.0 mm 0.00 in0.0 mm
11:30 AM 32.0°F0.0°C 27.4°F-2.6°C 83% 6.9 mph NW11.1 kmh NW 6.9 mph11.1 kmh 30.06 in1017.9 mb - 0.00 in0.0 mm 0.00 in0.0 mm
11:35 AM 32.0°F0.0°C 27.4°F-2.6°C 83% 5.8 mph N9.3 kmh N 5.8 mph9.3 kmh 30.05 in1017.6 mb - 0.00 in0.0 mm 0.00 in0.0 mm
11:40 AM 32.0°F0.0°C 27.4°F-2.6°C 83% 5.8 mph NNE9.3 kmh NNE 9.2 mph14.8 kmh 30.05 in1017.6 mb - 0.00 in0.0 mm 0.00 in0.0 mm
11:45 AM 32.2°F0.1°C 27.6°F-2.4°C 83% 5.8 mph N9.3 kmh N 6.9 mph11.1 kmh 30.06 in1017.9 mb - 0.00 in0.0 mm 0.00 in0.0 mm
11:50 AM 32.0°F0.0°C 27.4°F-2.6°C 83% 6.9 mph WNW11.1 kmh WNW 5.8 mph9.3 kmh 30.06 in1017.9 mb - 0.00 in0.0 mm 0.00 in0.0 mm
11:55 AM 32.4°F0.2°C 27.2°F-2.7°C 81% 5.8 mph NNE9.3 kmh NNE 3.5 mph5.6 kmh 30.06 in1017.9 mb - 0.00 in0.0 mm 0.00 in0.0 mm
12:00 PM 32.5°F0.3°C 26.7°F-2.9°C 79% 5.8 mph NNW9.3 kmh NNW 10.4 mph16.7 kmh 30.05 in1017.6 mb - 0.00 in0.0 mm 0.00 in0.0 mm
12:10 PM 32.5°F0.3°C 26.4°F-3.1°C 78% 4.6 mph N7.4 kmh N 2.3 mph3.7 kmh 30.05 in1017.6 mb - 0.00 in0.0 mm 0.00 in0.0 mm
12:15 PM 32.4°F0.2°C 26.6°F-3.0°C 79% 6.9 mph N11.1 kmh N 8.1 mph13.0 kmh 30.05 in1017.6 mb - 0.00 in0.0 mm 0.00 in0.0 mm
12:20 PM 32.5°F0.3°C 26.7°F-2.9°C 79% 5.8 mph NNE9.3 kmh NNE 3.5 mph5.6 kmh 30.05 in1017.6 mb - 0.00 in0.0 mm 0.00 in0.0 mm
12:25 PM 33.3°F0.7°C 27.1°F-2.7°C 78% 3.5 mph N5.6 kmh N 3.5 mph5.6 kmh 30.05 in1017.6 mb - 0.00 in0.0 mm 0.00 in0.0 mm
12:30 PM 32.9°F0.5°C 25.8°F-3.4°C 75% 5.8 mph NW9.3 kmh NW 9.2 mph14.8 kmh 30.05 in1017.6 mb - 0.00 in0.0 mm 0.00 in0.0 mm
12:35 PM 32.5°F0.3°C 25.5°F-3.6°C 75% 5.8 mph NNW9.3 kmh NNW 4.6 mph7.4 kmh 30.05 in1017.6 mb - 0.00 in0.0 mm 0.00 in0.0 mm
12:40 PM 33.1°F0.6°C 26.0°F-3.3°C 75% 4.6 mph NW7.4 kmh NW 4.6 mph7.4 kmh 30.05 in1017.6 mb - 0.00 in0.0 mm 0.00 in0.0 mm
12:45 PM 32.9°F0.5°C 26.2°F-3.2°C 76% 5.8 mph NNW9.3 kmh NNW 5.8 mph9.3 kmh 30.05 in1017.6 mb - 0.00 in0.0 mm 0.00 in0.0 mm
12:50 PM 32.5°F0.3°C 26.4°F-3.1°C 78% 4.6 mph NW7.4 kmh NW 3.5 mph5.6 kmh 30.05 in1017.6 mb - 0.00 in0.0 mm 0.00 in0.0 mm
12:55 PM 33.9°F1.1°C 27.4°F-2.6°C 77% 4.6 mph NE7.4 kmh NE 4.6 mph7.4 kmh 30.05 in1017.6 mb - 0.00 in0.0 mm 0.00 in0.0 mm
01:00 PM 34.9°F1.6°C 28.1°F-2.2°C 76% 4.6 mph 7.4 kmh 3.5 mph5.6 kmh 30.05 in1017.6 mb - 0.00 in0.0 mm 0.00 in0.0 mm
01:10 PM 34.6°F1.4°C 27.8°F-2.3°C 76% 5.8 mph NNE9.3 kmh NNE 8.1 mph13.0 kmh 30.05 in1017.6 mb - 0.00 in0.0 mm 0.00 in0.0 mm
01:15 PM 35.4°F1.9°C 28.6°F-1.9°C 76% 3.5 mph NNW5.6 kmh NNW 4.6 mph7.4 kmh 30.05 in1017.6 mb - 0.00 in0.0 mm 0.00 in0.0 mm
01:20 PM 34.9°F1.6°C 28.7°F-1.8°C 78% 4.6 mph NNW7.4 kmh NNW 4.6 mph7.4 kmh 30.05 in1017.6 mb - 0.00 in0.0 mm 0.00 in0.0 mm
01:25 PM 34.9°F1.6°C 28.7°F-1.8°C 78% 3.5 mph NNW5.6 kmh NNW 3.5 mph5.6 kmh 30.05 in1017.6 mb - 0.00 in0.0 mm 0.00 in0.0 mm
01:30 PM 35.1°F1.7°C 28.3°F-2.1°C 76% 4.6 mph N7.4 kmh N 6.9 mph11.1 kmh 30.05 in1017.6 mb - 0.00 in0.0 mm 0.00 in0.0 mm
01:35 PM 34.9°F1.6°C 28.1°F-2.2°C 76% 5.8 mph N9.3 kmh N 4.6 mph7.4 kmh 30.05 in1017.6 mb - 0.00 in0.0 mm 0.00 in0.0 mm
01:40 PM 34.9°F1.6°C 28.8°F-1.8°C 78% 4.6 mph NNE7.4 kmh NNE 3.5 mph5.6 kmh 30.04 in1017.3 mb - 0.00 in0.0 mm 0.00 in0.0 mm
01:45 PM 35.1°F1.7°C 28.9°F-1.7°C 78% 4.6 mph W7.4 kmh W 3.5 mph5.6 kmh 30.04 in1017.3 mb - 0.00 in0.0 mm 0.00 in0.0 mm
01:50 PM 34.7°F1.5°C 28.5°F-1.9°C 78% 5.8 mph NNE9.3 kmh NNE 5.8 mph9.3 kmh 30.04 in1017.3 mb - 0.00 in0.0 mm 0.00 in0.0 mm
01:55 PM 35.0°F1.7°C 28.8°F-1.8°C 78% 3.5 mph NNW5.6 kmh NNW 3.5 mph5.6 kmh 30.05 in1017.6 mb - 0.00 in0.0 mm 0.00 in0.0 mm
02:00 PM 35.1°F1.7°C 28.9°F-1.7°C 78% 3.5 mph NNW5.6 kmh NNW 5.8 mph9.3 kmh 30.05 in1017.6 mb - 0.00 in0.0 mm 0.00 in0.0 mm
02:10 PM 35.4°F1.9°C 29.2°F-1.6°C 78% 2.3 mph N3.7 kmh N 2.3 mph3.7 kmh 30.04 in1017.3 mb - 0.00 in0.0 mm 0.00 in0.0 mm
02:15 PM 35.4°F1.9°C 29.2°F-1.6°C 78% 4.6 mph NE7.4 kmh NE 4.6 mph7.4 kmh 30.05 in1017.6 mb - 0.00 in0.0 mm 0.00 in0.0 mm
02:20 PM 35.3°F1.8°C 29.4°F-1.4°C 79% 3.5 mph NE5.6 kmh NE 3.5 mph5.6 kmh 30.05 in1017.6 mb - 0.00 in0.0 mm 0.00 in0.0 mm
02:25 PM 36.0°F2.2°C 29.8°F-1.2°C 78% 3.5 mph N5.6 kmh N 3.5 mph5.6 kmh 30.05 in1017.6 mb - 0.00 in0.0 mm 0.00 in0.0 mm
02:30 PM 35.8°F2.1°C 29.6°F-1.3°C 78% 3.5 mph NNW5.6 kmh NNW 5.8 mph9.3 kmh 30.05 in1017.6 mb - 0.00 in0.0 mm 0.00 in0.0 mm
02:35 PM 36.0°F2.2°C 29.8°F-1.2°C 78% 3.5 mph NNW5.6 kmh NNW 3.5 mph5.6 kmh 30.06 in1017.9 mb - 0.00 in0.0 mm 0.00 in0.0 mm
02:40 PM 36.0°F2.2°C 29.8°F-1.2°C 78% 3.5 mph N5.6 kmh N 3.5 mph5.6 kmh 30.06 in1017.9 mb - 0.00 in0.0 mm 0.00 in0.0 mm
02:45 PM 36.1°F2.3°C 29.9°F-1.2°C 78% 2.3 mph NNW3.7 kmh NNW 2.3 mph3.7 kmh 30.06 in1017.9 mb - 0.00 in0.0 mm 0.00 in0.0 mm
02:50 PM 36.1°F2.3°C 29.9°F-1.2°C 78% 3.5 mph NW5.6 kmh NW 8.1 mph13.0 kmh 30.06 in1017.9 mb - 0.00 in0.0 mm 0.00 in0.0 mm
02:55 PM 36.1°F2.3°C 27.6°F-2.4°C 71% 4.6 mph NW7.4 kmh NW 8.1 mph13.0 kmh 30.07 in1018.3 mb - 0.00 in0.0 mm 0.00 in0.0 mm
03:00 PM 36.1°F2.3°C 27.9°F-2.3°C 72% 4.6 mph NW7.4 kmh NW 8.1 mph13.0 kmh 30.07 in1018.3 mb - 0.00 in0.0 mm 0.00 in0.0 mm
03:10 PM 35.4°F1.9°C 28.3°F-2.1°C 75% 4.6 mph WSW7.4 kmh WSW 4.6 mph7.4 kmh 30.07 in1018.3 mb - 0.00 in0.0 mm 0.00 in0.0 mm
03:15 PM 35.4°F1.9°C 28.3°F-2.1°C 75% 3.5 mph NW5.6 kmh NW 3.5 mph5.6 kmh 30.07 in1018.3 mb - 0.00 in0.0 mm 0.00 in0.0 mm
03:20 PM 35.4°F1.9°C 29.2°F-1.6°C 78% 3.5 mph WNW5.6 kmh WNW 5.8 mph9.3 kmh 30.08 in1018.6 mb - 0.00 in0.0 mm 0.00 in0.0 mm
03:25 PM 35.2°F1.8°C 29.0°F-1.7°C 78% 4.6 mph NW7.4 kmh NW 8.1 mph13.0 kmh 30.07 in1018.3 mb - 0.00 in0.0 mm 0.00 in0.0 mm
03:30 PM 35.1°F1.7°C 29.2°F-1.6°C 79% 5.8 mph WSW9.3 kmh WSW 4.6 mph7.4 kmh 30.08 in1018.6 mb - 0.00 in0.0 mm 0.00 in0.0 mm
03:35 PM 34.9°F1.6°C 29.3°F-1.5°C 80% 4.6 mph WNW7.4 kmh WNW 5.8 mph9.3 kmh 30.07 in1018.3 mb - 0.00 in0.0 mm 0.00 in0.0 mm
03:40 PM 34.7°F1.5°C 29.5°F-1.4°C 81% 5.8 mph W9.3 kmh W 6.9 mph11.1 kmh 30.07 in1018.3 mb - 0.00 in0.0 mm 0.00 in0.0 mm
03:45 PM 34.7°F1.5°C 29.5°F-1.4°C 81% 5.8 mph WSW9.3 kmh WSW 5.8 mph9.3 kmh 30.08 in1018.6 mb - 0.00 in0.0 mm 0.00 in0.0 mm
03:50 PM 34.5°F1.4°C 29.9°F-1.2°C 83% 4.6 mph WSW7.4 kmh WSW 3.5 mph5.6 kmh 30.08 in1018.6 mb - 0.00 in0.0 mm 0.00 in0.0 mm
03:55 PM 34.2°F1.2°C 30.1°F-1.1°C 85% 6.9 mph WNW11.1 kmh WNW 8.1 mph13.0 kmh 30.08 in1018.6 mb - 0.00 in0.0 mm 0.00 in0.0 mm
04:00 PM 34.0°F1.1°C 30.2°F-1.0°C 86% 3.5 mph WSW5.6 kmh WSW 4.6 mph7.4 kmh 30.08 in1018.6 mb - 0.00 in0.0 mm 0.00 in0.0 mm
04:10 PM 33.4°F0.8°C 30.3°F-0.9°C 88% 3.5 mph NW5.6 kmh NW 3.5 mph5.6 kmh 30.08 in1018.6 mb - 0.00 in0.0 mm 0.00 in0.0 mm
04:15 PM 33.4°F0.8°C 30.3°F-0.9°C 88% 3.5 mph NW5.6 kmh NW 3.5 mph5.6 kmh 30.09 in1019.0 mb - 0.00 in0.0 mm 0.00 in0.0 mm
04:20 PM 33.1°F0.6°C 30.7°F-0.7°C 91% 3.5 mph W5.6 kmh W 3.5 mph5.6 kmh 30.09 in1019.0 mb - 0.00 in0.0 mm 0.00 in0.0 mm
04:25 PM 33.1°F0.6°C 30.7°F-0.7°C 91% 3.5 mph WNW5.6 kmh WNW 3.5 mph5.6 kmh 30.09 in1019.0 mb - 0.00 in0.0 mm 0.00 in0.0 mm
04:30 PM 32.9°F0.5°C 30.6°F-0.8°C 91% 3.5 mph WNW5.6 kmh WNW 3.5 mph5.6 kmh 30.09 in1019.0 mb - 0.00 in0.0 mm 0.00 in0.0 mm
04:35 PM 33.1°F0.6°C 30.7°F-0.7°C 91% 2.3 mph NW3.7 kmh NW 3.5 mph5.6 kmh 30.10 in1019.3 mb - 0.00 in0.0 mm 0.00 in0.0 mm
04:40 PM 32.6°F0.3°C 30.3°F-0.9°C 91% 3.5 mph NE5.6 kmh NE 5.8 mph9.3 kmh 30.10 in1019.3 mb - 0.00 in0.0 mm 0.00 in0.0 mm
04:45 PM 32.5°F0.3°C 30.2°F-1.0°C 91% 2.3 mph WNW3.7 kmh WNW 3.5 mph5.6 kmh 30.10 in1019.3 mb - 0.00 in0.0 mm 0.00 in0.0 mm
04:50 PM 32.4°F0.2°C 30.6°F-0.8°C 93% 4.6 mph W7.4 kmh W 4.6 mph7.4 kmh 30.10 in1019.3 mb - 0.00 in0.0 mm 0.00 in0.0 mm
04:55 PM 32.4°F0.2°C 30.6°F-0.8°C 93% 3.5 mph NW5.6 kmh NW 3.5 mph5.6 kmh 30.10 in1019.3 mb - 0.00 in0.0 mm 0.00 in0.0 mm
05:00 PM 32.4°F0.2°C 30.6°F-0.8°C 93% 2.3 mph W3.7 kmh W 2.3 mph3.7 kmh 30.10 in1019.3 mb - 0.00 in0.0 mm 0.00 in0.0 mm
05:10 PM 32.5°F0.3°C 30.7°F-0.7°C 93% 3.5 mph WNW5.6 kmh WNW 3.5 mph5.6 kmh 30.10 in1019.3 mb - 0.00 in0.0 mm 0.00 in0.0 mm
05:15 PM 32.4°F0.2°C 30.6°F-0.8°C 93% 4.6 mph NW7.4 kmh NW 4.6 mph7.4 kmh 30.11 in1019.6 mb - 0.00 in0.0 mm 0.00 in0.0 mm
05:20 PM 32.4°F0.2°C 30.6°F-0.8°C 93% 3.5 mph WNW5.6 kmh WNW 6.9 mph11.1 kmh 30.11 in1019.6 mb - 0.00 in0.0 mm 0.00 in0.0 mm
05:25 PM 32.4°F0.2°C 30.6°F-0.8°C 93% 3.5 mph NW5.6 kmh NW 4.6 mph7.4 kmh 30.11 in1019.6 mb - 0.00 in0.0 mm 0.00 in0.0 mm
05:30 PM 32.4°F0.2°C 30.6°F-0.8°C 93% 3.5 mph WNW5.6 kmh WNW 3.5 mph5.6 kmh 30.11 in1019.6 mb - 0.00 in0.0 mm 0.00 in0.0 mm
05:35 PM 32.2°F0.1°C 30.4°F-0.9°C 93% 3.5 mph WNW5.6 kmh WNW 3.5 mph5.6 kmh 30.12 in1020.0 mb - 0.00 in0.0 mm 0.00 in0.0 mm
05:40 PM 32.2°F0.1°C 30.4°F-0.9°C 93% 3.5 mph W5.6 kmh W 3.5 mph5.6 kmh 30.12 in1020.0 mb - 0.00 in0.0 mm 0.00 in0.0 mm
05:45 PM 32.0°F0.0°C 30.2°F-1.0°C 93% 4.6 mph W7.4 kmh W 8.1 mph13.0 kmh 30.12 in1020.0 mb - 0.00 in0.0 mm 0.00 in0.0 mm
05:50 PM 32.0°F0.0°C 30.2°F-1.0°C 93% 3.5 mph NW5.6 kmh NW 3.5 mph5.6 kmh 30.13 in1020.3 mb - 0.00 in0.0 mm 0.00 in0.0 mm
05:55 PM 32.0°F0.0°C 30.2°F-1.0°C 93% 3.5 mph WNW5.6 kmh WNW 3.5 mph5.6 kmh 30.12 in1020.0 mb - 0.00 in0.0 mm 0.00 in0.0 mm
06:00 PM 32.0°F0.0°C 30.2°F-1.0°C 93% 3.5 mph WNW5.6 kmh WNW 3.5 mph5.6 kmh 30.13 in1020.3 mb - 0.00 in0.0 mm 0.00 in0.0 mm
06:10 PM 32.0°F0.0°C 30.2°F-1.0°C 93% 2.3 mph NW3.7 kmh NW 5.8 mph9.3 kmh 30.14 in1020.7 mb - 0.00 in0.0 mm 0.00 in0.0 mm
06:15 PM 32.0°F0.0°C 30.2°F-1.0°C 93% 3.5 mph NW5.6 kmh NW 2.3 mph3.7 kmh 30.14 in1020.7 mb - 0.00 in0.0 mm 0.00 in0.0 mm
06:20 PM 32.0°F0.0°C 30.2°F-1.0°C 93% 3.5 mph NW5.6 kmh NW 3.5 mph5.6 kmh 30.14 in1020.7 mb - 0.00 in0.0 mm 0.00 in0.0 mm
06:25 PM 32.0°F0.0°C 30.2°F-1.0°C 93% 4.6 mph WNW7.4 kmh WNW 4.6 mph7.4 kmh 30.14 in1020.7 mb - 0.00 in0.0 mm 0.00 in0.0 mm
06:30 PM 32.1°F0.1°C 30.3°F-0.9°C 93% 3.5 mph W5.6 kmh W 3.5 mph5.6 kmh 30.15 in1021.0 mb - 0.00 in0.0 mm 0.00 in0.0 mm
06:35 PM 32.2°F0.1°C 30.4°F-0.9°C 93% 4.6 mph WNW7.4 kmh WNW 3.5 mph5.6 kmh 30.15 in1021.0 mb - 0.00 in0.0 mm 0.00 in0.0 mm
06:40 PM 32.2°F0.1°C 30.4°F-0.9°C 93% 3.5 mph W5.6 kmh W 3.5 mph5.6 kmh 30.14 in1020.7 mb - 0.00 in0.0 mm 0.00 in0.0 mm
06:45 PM 32.2°F0.1°C 30.4°F-0.9°C 93% 3.5 mph WNW5.6 kmh WNW 3.5 mph5.6 kmh 30.15 in1021.0 mb - 0.00 in0.0 mm 0.00 in0.0 mm
06:50 PM 32.2°F0.1°C 30.4°F-0.9°C 93% 3.5 mph WNW5.6 kmh WNW 3.5 mph5.6 kmh 30.15 in1021.0 mb - 0.00 in0.0 mm 0.00 in0.0 mm
06:55 PM 32.2°F0.1°C 30.4°F-0.9°C 93% 3.5 mph WNW5.6 kmh WNW 3.5 mph5.6 kmh 30.15 in1021.0 mb - 0.00 in0.0 mm 0.00 in0.0 mm
07:00 PM 32.2°F0.1°C 30.4°F-0.9°C 93% 3.5 mph WNW5.6 kmh WNW 2.3 mph3.7 kmh 30.15 in1021.0 mb - 0.00 in0.0 mm 0.00 in0.0 mm
07:10 PM 32.4°F0.2°C 30.6°F-0.8°C 93% 4.6 mph WNW7.4 kmh WNW 5.8 mph9.3 kmh 30.16 in1021.3 mb - 0.00 in0.0 mm 0.00 in0.0 mm
07:15 PM 32.4°F0.2°C 30.6°F-0.8°C 93% 4.6 mph WNW7.4 kmh WNW 5.8 mph9.3 kmh 30.16 in1021.3 mb - 0.00 in0.0 mm 0.00 in0.0 mm
07:20 PM 32.5°F0.3°C 30.2°F-1.0°C 91% 3.5 mph NW5.6 kmh NW 5.8 mph9.3 kmh 30.16 in1021.3 mb - 0.00 in0.0 mm 0.00 in0.0 mm
07:25 PM 32.5°F0.3°C 30.2°F-1.0°C 91% 5.8 mph NW9.3 kmh NW 5.8 mph9.3 kmh 30.16 in1021.3 mb - 0.00 in0.0 mm 0.00 in0.0 mm
07:30 PM 32.5°F0.3°C 30.2°F-1.0°C 91% 4.6 mph WNW7.4 kmh WNW 2.3 mph3.7 kmh 30.16 in1021.3 mb - 0.00 in0.0 mm 0.00 in0.0 mm
07:35 PM 32.5°F0.3°C 30.2°F-1.0°C 91% 4.6 mph WNW7.4 kmh WNW 2.3 mph3.7 kmh 30.16 in1021.3 mb - 0.00 in0.0 mm 0.00 in0.0 mm
07:40 PM 32.5°F0.3°C 30.2°F-1.0°C 91% 4.6 mph NW7.4 kmh NW 6.9 mph11.1 kmh 30.16 in1021.3 mb - 0.00 in0.0 mm 0.00 in0.0 mm
07:45 PM 32.5°F0.3°C 30.2°F-1.0°C 91% 3.5 mph NW5.6 kmh NW 3.5 mph5.6 kmh 30.16 in1021.3 mb - 0.00 in0.0 mm 0.00 in0.0 mm
07:50 PM 32.5°F0.3°C 30.2°F-1.0°C 91% 3.5 mph W5.6 kmh W 4.6 mph7.4 kmh 30.16 in1021.3 mb - 0.00 in0.0 mm 0.00 in0.0 mm
07:55 PM 32.5°F0.3°C 30.2°F-1.0°C 91% 4.6 mph WNW7.4 kmh WNW 3.5 mph5.6 kmh 30.17 in1021.7 mb - 0.00 in0.0 mm 0.00 in0.0 mm
08:00 PM 32.5°F0.3°C 30.2°F-1.0°C 91% 3.5 mph NW5.6 kmh NW 3.5 mph5.6 kmh 30.16 in1021.3 mb - 0.00 in0.0 mm 0.00 in0.0 mm
08:10 PM 32.5°F0.3°C 30.2°F-1.0°C 91% 2.3 mph W3.7 kmh W 3.5 mph5.6 kmh 30.17 in1021.7 mb - 0.00 in0.0 mm 0.00 in0.0 mm
08:15 PM 32.5°F0.3°C 30.2°F-1.0°C 91% 2.3 mph WNW3.7 kmh WNW 3.5 mph5.6 kmh 30.17 in1021.7 mb - 0.00 in0.0 mm 0.00 in0.0 mm
08:20 PM 32.5°F0.3°C 30.2°F-1.0°C 91% 2.3 mph NW3.7 kmh NW 3.5 mph5.6 kmh 30.17 in1021.7 mb - 0.00 in0.0 mm 0.00 in0.0 mm
08:25 PM 32.5°F0.3°C 30.2°F-1.0°C 91% 2.3 mph NNW3.7 kmh NNW 4.6 mph7.4 kmh 30.17 in1021.7 mb - 0.00 in0.0 mm 0.00 in0.0 mm
08:30 PM 32.5°F0.3°C 30.2°F-1.0°C 91% 2.3 mph W3.7 kmh W 2.3 mph3.7 kmh 30.17 in1021.7 mb - 0.00 in0.0 mm 0.00 in0.0 mm
08:35 PM 32.4°F0.2°C 30.0°F-1.1°C 91% 2.3 mph W3.7 kmh W 3.5 mph5.6 kmh 30.16 in1021.3 mb - 0.00 in0.0 mm 0.00 in0.0 mm
08:40 PM 32.2°F0.1°C 29.8°F-1.2°C 91% 2.3 mph W3.7 kmh W 3.5 mph5.6 kmh 30.18 in1022.0 mb - 0.00 in0.0 mm 0.00 in0.0 mm
08:45 PM 32.0°F0.0°C 29.7°F-1.3°C 91% 2.3 mph W3.7 kmh W 2.3 mph3.7 kmh 30.18 in1022.0 mb - 0.00 in0.0 mm 0.00 in0.0 mm
08:50 PM 32.0°F0.0°C 29.7°F-1.3°C 91% 1.2 mph W1.9 kmh W 2.3 mph3.7 kmh 30.18 in1022.0 mb - 0.00 in0.0 mm 0.00 in0.0 mm
08:55 PM 32.0°F0.0°C 29.7°F-1.3°C 91% 1.2 mph WSW1.9 kmh WSW -- 30.18 in1022.0 mb - 0.00 in0.0 mm 0.00 in0.0 mm
09:00 PM 32.0°F0.0°C 29.7°F-1.3°C 91% Calm Calm 1.2 mph1.9 kmh 30.19 in1022.4 mb - 0.00 in0.0 mm 0.00 in0.0 mm
09:10 PM 32.0°F0.0°C 29.7°F-1.3°C 91% 1.2 mph W1.9 kmh W -- 30.19 in1022.4 mb - 0.00 in0.0 mm 0.00 in0.0 mm
09:15 PM 32.0°F0.0°C 29.7°F-1.3°C 91% Calm Calm 1.2 mph1.9 kmh 30.20 in1022.7 mb - 0.00 in0.0 mm 0.00 in0.0 mm
09:20 PM 30.2°F-1.0°C 27.9°F-2.3°C 91% 1.2 mph WSW1.9 kmh WSW 1.2 mph1.9 kmh 30.20 in1022.7 mb - 0.00 in0.0 mm 0.00 in0.0 mm
09:25 PM 30.2°F-1.0°C 28.4°F-2.0°C 93% 1.2 mph W1.9 kmh W 2.3 mph3.7 kmh 30.20 in1022.7 mb - 0.00 in0.0 mm 0.00 in0.0 mm
09:30 PM 30.2°F-1.0°C 28.4°F-2.0°C 93% 1.2 mph W1.9 kmh W 3.5 mph5.6 kmh 30.20 in1022.7 mb - 0.00 in0.0 mm 0.00 in0.0 mm
09:35 PM 30.2°F-1.0°C 28.4°F-2.0°C 93% 1.2 mph SW1.9 kmh SW 2.3 mph3.7 kmh 30.20 in1022.7 mb - 0.00 in0.0 mm 0.00 in0.0 mm
09:40 PM 30.2°F-1.0°C 28.4°F-2.0°C 93% 1.2 mph SW1.9 kmh SW 2.3 mph3.7 kmh 30.21 in1023.0 mb - 0.00 in0.0 mm 0.00 in0.0 mm
09:45 PM 30.2°F-1.0°C 28.4°F-2.0°C 93% 2.3 mph WSW3.7 kmh WSW 2.3 mph3.7 kmh 30.21 in1023.0 mb - 0.00 in0.0 mm 0.00 in0.0 mm
09:50 PM 30.2°F-1.0°C 28.4°F-2.0°C 93% 2.3 mph WSW3.7 kmh WSW 2.3 mph3.7 kmh 30.21 in1023.0 mb - 0.00 in0.0 mm 0.00 in0.0 mm
09:55 PM 30.2°F-1.0°C 28.4°F-2.0°C 93% 1.2 mph WSW1.9 kmh WSW 2.3 mph3.7 kmh 30.21 in1023.0 mb - 0.00 in0.0 mm 0.00 in0.0 mm
10:00 PM 30.2°F-1.0°C 28.4°F-2.0°C 93% 1.2 mph WNW1.9 kmh WNW -- 30.21 in1023.0 mb - 0.00 in0.0 mm 0.00 in0.0 mm
10:10 PM 30.2°F-1.0°C 28.4°F-2.0°C 93% Calm Calm 1.2 mph1.9 kmh 30.21 in1023.0 mb - 0.00 in0.0 mm 0.00 in0.0 mm
10:15 PM 30.2°F-1.0°C 28.4°F-2.0°C 93% 1.2 mph W1.9 kmh W 1.2 mph1.9 kmh 30.21 in1023.0 mb - 0.00 in0.0 mm 0.00 in0.0 mm
10:20 PM 30.2°F-1.0°C 28.4°F-2.0°C 93% Calm Calm -- 30.22 in1023.4 mb - 0.00 in0.0 mm 0.00 in0.0 mm
10:25 PM 30.2°F-1.0°C 28.4°F-2.0°C 93% Calm Calm -- 30.22 in1023.4 mb - 0.00 in0.0 mm 0.00 in0.0 mm
10:30 PM 28.4°F-2.0°C 26.6°F-3.0°C 93% 1.2 mph WSW1.9 kmh WSW 2.3 mph3.7 kmh 30.22 in1023.4 mb - 0.00 in0.0 mm 0.00 in0.0 mm
10:35 PM 28.4°F-2.0°C 26.6°F-3.0°C 93% 1.2 mph WSW1.9 kmh WSW 1.2 mph1.9 kmh 30.22 in1023.4 mb - 0.00 in0.0 mm 0.00 in0.0 mm
10:40 PM 30.2°F-1.0°C 28.4°F-2.0°C 93% 1.2 mph W1.9 kmh W 2.3 mph3.7 kmh 30.22 in1023.4 mb - 0.00 in0.0 mm 0.00 in0.0 mm
10:45 PM 30.2°F-1.0°C 28.4°F-2.0°C 93% 1.2 mph W1.9 kmh W 2.3 mph3.7 kmh 30.22 in1023.4 mb - 0.00 in0.0 mm 0.00 in0.0 mm
10:50 PM 30.2°F-1.0°C 28.4°F-2.0°C 93% 2.3 mph W3.7 kmh W 2.3 mph3.7 kmh 30.22 in1023.4 mb - 0.00 in0.0 mm 0.00 in0.0 mm
10:55 PM 30.2°F-1.0°C 28.4°F-2.0°C 93% 2.3 mph W3.7 kmh W 2.3 mph3.7 kmh 30.22 in1023.4 mb - 0.00 in0.0 mm 0.00 in0.0 mm
11:00 PM 30.2°F-1.0°C 28.4°F-2.0°C 93% 1.2 mph W1.9 kmh W 2.3 mph3.7 kmh 30.23 in1023.7 mb - 0.00 in0.0 mm 0.00 in0.0 mm
11:10 PM 30.2°F-1.0°C 28.4°F-2.0°C 93% 2.3 mph WNW3.7 kmh WNW 3.5 mph5.6 kmh 30.23 in1023.7 mb - 0.00 in0.0 mm 0.00 in0.0 mm
11:15 PM 30.2°F-1.0°C 28.4°F-2.0°C 93% 2.3 mph WNW3.7 kmh WNW 2.3 mph3.7 kmh 30.24 in1024.0 mb - 0.00 in0.0 mm 0.00 in0.0 mm
11:20 PM 30.2°F-1.0°C 28.4°F-2.0°C 93% 2.3 mph W3.7 kmh W 3.5 mph5.6 kmh 30.24 in1024.0 mb - 0.00 in0.0 mm 0.00 in0.0 mm
11:25 PM 30.2°F-1.0°C 28.4°F-2.0°C 93% 2.3 mph NW3.7 kmh NW 3.5 mph5.6 kmh 30.24 in1024.0 mb - 0.00 in0.0 mm 0.00 in0.0 mm
11:30 PM 30.2°F-1.0°C 28.4°F-2.0°C 93% 3.5 mph WNW5.6 kmh WNW 3.5 mph5.6 kmh 30.24 in1024.0 mb - 0.00 in0.0 mm 0.00 in0.0 mm
11:35 PM 30.2°F-1.0°C 28.4°F-2.0°C 93% 1.2 mph NNW1.9 kmh NNW 2.3 mph3.7 kmh 30.24 in1024.0 mb - 0.00 in0.0 mm 0.00 in0.0 mm
11:40 PM 30.2°F-1.0°C 28.4°F-2.0°C 93% 2.3 mph NW3.7 kmh NW 3.5 mph5.6 kmh 30.25 in1024.4 mb - 0.00 in0.0 mm 0.00 in0.0 mm
11:45 PM 30.2°F-1.0°C 28.4°F-2.0°C 93% 2.3 mph NW3.7 kmh NW 3.5 mph5.6 kmh 30.25 in1024.4 mb - 0.00 in0.0 mm 0.00 in0.0 mm
11:50 PM 30.2°F-1.0°C 28.4°F-2.0°C 93% 2.3 mph NW3.7 kmh NW 3.5 mph5.6 kmh 30.25 in1024.4 mb - 0.00 in0.0 mm 0.00 in0.0 mm
11:55 PM 30.2°F-1.0°C 28.4°F-2.0°C 93% 2.3 mph NW3.7 kmh NW 3.5 mph5.6 kmh 30.26 in1024.7 mb - 0.00 in0.0 mm 0.00 in0.0 mm